createdAt,value
2018-12-29T00:00:55.343Z,59.67
2018-12-29T00:03:24.635Z,59.43
2018-12-29T00:05:53.947Z,66.53
2018-12-29T00:08:23.230Z,60.93
2018-12-29T00:10:52.537Z,58.77
2018-12-29T00:13:21.828Z,59.77
2018-12-29T00:15:51.074Z,56.93
2018-12-29T00:18:20.411Z,62.30
2018-12-29T00:20:49.679Z,60.63
2018-12-29T00:23:19.065Z,59.27
2018-12-29T00:25:48.332Z,63.10
2018-12-29T00:28:17.651Z,62.67
2018-12-29T00:30:46.859Z,56.83
2018-12-29T00:33:16.164Z,58.50
2018-12-29T00:35:45.406Z,55.03
2018-12-29T00:38:14.711Z,55.73
2018-12-29T00:40:44.179Z,54.53
2018-12-29T00:43:13.526Z,59.67
2018-12-29T00:45:42.888Z,54.27
2018-12-29T00:48:12.178Z,58.17
2018-12-29T00:50:41.517Z,54.63
2018-12-29T00:53:10.818Z,52.70
2018-12-29T00:55:40.088Z,52.13
2018-12-29T00:58:09.337Z,55.53
2018-12-29T01:00:38.608Z,51.53
2018-12-29T01:03:07.889Z,48.10
2018-12-29T01:05:37.192Z,49.50
2018-12-29T01:08:06.433Z,51.47
2018-12-29T01:10:35.676Z,53.83
2018-12-29T01:13:04.955Z,46.30
2018-12-29T01:15:34.202Z,47.97
2018-12-29T01:18:03.608Z,46.37
2018-12-29T01:20:32.938Z,48.83
2018-12-29T01:23:02.218Z,47.67
2018-12-29T01:25:31.504Z,46.90
2018-12-29T01:28:00.821Z,50.10
2018-12-29T01:30:30.094Z,51.33
2018-12-29T01:32:59.382Z,48.70
2018-12-29T01:35:28.624Z,48.43
2018-12-29T01:37:57.896Z,45.77
2018-12-29T01:40:27.167Z,46.60
2018-12-29T01:42:56.428Z,48.20
2018-12-29T01:45:25.732Z,46.20
2018-12-29T01:47:55.029Z,47.07
2018-12-29T01:50:24.328Z,49.13
2018-12-29T01:52:53.598Z,48.67
2018-12-29T01:55:22.892Z,46.23
2018-12-29T01:57:52.140Z,47.83
2018-12-29T02:00:21.426Z,49.00
2018-12-29T02:02:50.683Z,52.50
2018-12-29T02:05:19.962Z,47.43
2018-12-29T02:07:49.211Z,51.23
2018-12-29T02:10:18.492Z,55.23
2018-12-29T02:12:47.764Z,49.77
2018-12-29T02:15:17.106Z,54.43
2018-12-29T02:17:46.383Z,50.60
2018-12-29T02:20:15.633Z,52.97
2018-12-29T02:22:44.999Z,57.27
2018-12-29T02:25:14.284Z,54.23
2018-12-29T02:27:43.578Z,56.00
2018-12-29T02:30:12.897Z,56.87
2018-12-29T02:32:42.237Z,54.00
2018-12-29T02:35:11.617Z,58.57
2018-12-29T02:37:40.936Z,58.53
2018-12-29T02:40:10.299Z,64.47
2018-12-29T02:42:39.602Z,56.70
2018-12-29T02:45:08.844Z,57.80
2018-12-29T02:47:38.099Z,60.20
2018-12-29T02:50:07.384Z,60.10
2018-12-29T02:52:36.657Z,60.73
2018-12-29T02:55:05.962Z,58.40
2018-12-29T02:57:35.267Z,56.20
2018-12-29T03:00:04.560Z,59.23
2018-12-29T03:02:33.808Z,58.23
2018-12-29T03:05:03.113Z,58.57
2018-12-29T03:07:32.362Z,66.03
2018-12-29T03:10:01.669Z,56.47
2018-12-29T03:12:30.902Z,59.63
2018-12-29T03:15:00.286Z,61.73
2018-12-29T03:17:29.598Z,60.37
2018-12-29T03:19:58.884Z,58.47
2018-12-29T03:22:28.236Z,56.87
2018-12-29T03:24:57.611Z,60.53
2018-12-29T03:27:26.931Z,58.13
2018-12-29T03:29:56.212Z,54.70
2018-12-29T03:32:25.548Z,58.47
2018-12-29T03:34:54.924Z,57.60
2018-12-29T03:37:24.206Z,51.93
2018-12-29T03:39:53.678Z,59.57
2018-12-29T03:42:22.945Z,53.67
2018-12-29T03:44:52.183Z,54.23
2018-12-29T03:47:21.440Z,52.00
2018-12-29T03:49:50.678Z,56.63
2018-12-29T03:52:19.924Z,51.33
2018-12-29T03:54:49.186Z,53.10
2018-12-29T03:57:18.416Z,59.40
2018-12-29T03:59:47.688Z,54.77
2018-12-29T04:02:16.913Z,55.63
2018-12-29T04:04:46.268Z,50.17
2018-12-29T04:07:15.654Z,49.80
2018-12-29T04:09:45.059Z,51.87
2018-12-29T04:12:19.668Z,48.57
2018-12-29T04:14:48.986Z,47.30
2018-12-29T04:17:18.258Z,47.63
2018-12-29T04:19:47.582Z,47.00
2018-12-29T04:22:16.870Z,52.90
2018-12-29T04:24:46.192Z,46.00
2018-12-29T04:27:15.572Z,48.10
2018-12-29T04:29:44.968Z,49.33
2018-12-29T04:32:14.304Z,42.93
2018-12-29T04:34:43.577Z,45.03
2018-12-29T04:37:12.898Z,49.10
2018-12-29T04:39:42.171Z,46.77
2018-12-29T04:42:11.443Z,45.10
2018-12-29T04:44:40.791Z,49.37
2018-12-29T04:47:10.075Z,43.87
2018-12-29T04:49:39.309Z,50.20
2018-12-29T04:52:08.591Z,49.10
2018-12-29T04:54:37.884Z,48.67
2018-12-29T04:57:07.124Z,45.80
2018-12-29T04:59:36.380Z,42.53
2018-12-29T05:02:05.640Z,46.37
2018-12-29T05:04:34.923Z,45.87
2018-12-29T05:07:04.190Z,48.03
2018-12-29T05:09:33.459Z,40.90
2018-12-29T05:12:02.717Z,47.07
2018-12-29T05:14:31.972Z,46.10
2018-12-29T05:17:01.283Z,48.30
2018-12-29T05:19:30.568Z,45.63
2018-12-29T05:21:59.818Z,46.53
2018-12-29T05:24:29.064Z,43.97
2018-12-29T05:26:58.365Z,46.67
2018-12-29T05:29:27.623Z,47.13
2018-12-29T05:31:56.886Z,48.00
2018-12-29T05:34:26.174Z,44.77
2018-12-29T05:36:55.457Z,46.50
2018-12-29T05:39:24.727Z,49.53
2018-12-29T05:41:53.981Z,47.20
2018-12-29T05:44:25.685Z,47.23
2018-12-29T05:46:52.501Z,49.67
2018-12-29T05:49:21.735Z,48.20
2018-12-29T05:51:52.123Z,44.67
2018-12-29T05:54:21.311Z,45.60
2018-12-29T05:56:50.521Z,41.70
2018-12-29T05:59:19.777Z,43.93
2018-12-29T06:01:49.012Z,41.00
2018-12-29T06:04:18.273Z,40.37
2018-12-29T06:06:47.611Z,41.63
2018-12-29T06:09:16.887Z,45.73
2018-12-29T06:11:46.163Z,36.67
2018-12-29T06:14:15.399Z,41.17
2018-12-29T06:16:44.659Z,38.63
2018-12-29T06:19:14.007Z,35.23
2018-12-29T06:21:43.270Z,35.17
2018-12-29T06:24:12.608Z,41.57
2018-12-29T06:26:41.879Z,39.40
2018-12-29T06:29:11.124Z,37.37
2018-12-29T06:31:40.434Z,37.93
2018-12-29T06:34:09.646Z,38.57
2018-12-29T06:36:38.975Z,33.93
2018-12-29T06:39:08.515Z,34.27
2018-12-29T06:41:37.785Z,37.50
2018-12-29T06:44:07.047Z,36.10
2018-12-29T06:46:36.291Z,35.30
2018-12-29T06:49:05.565Z,35.17
2018-12-29T06:51:34.807Z,37.83
2018-12-29T06:54:04.147Z,38.13
2018-12-29T06:56:33.369Z,35.67
2018-12-29T06:59:02.750Z,36.53
2018-12-29T07:01:32.023Z,37.30
2018-12-29T07:04:01.285Z,41.47
2018-12-29T07:06:30.519Z,35.50
2018-12-29T07:08:59.805Z,39.93
2018-12-29T07:11:29.129Z,41.80
2018-12-29T07:13:58.391Z,44.10
2018-12-29T07:16:27.695Z,42.27
2018-12-29T07:18:56.983Z,46.53
2018-12-29T07:21:26.273Z,45.47
2018-12-29T07:23:55.673Z,49.23
2018-12-29T07:26:25.003Z,53.40
2018-12-29T07:28:54.280Z,53.90
2018-12-29T07:31:23.677Z,45.93
2018-12-29T07:33:52.941Z,44.17
2018-12-29T07:36:22.267Z,46.07
2018-12-29T07:38:51.548Z,43.47
2018-12-29T07:41:20.835Z,44.27
2018-12-29T07:43:50.146Z,44.80
2018-12-29T07:46:19.553Z,42.60
2018-12-29T07:48:48.871Z,41.60
2018-12-29T07:51:18.167Z,41.77
2018-12-29T07:53:47.484Z,41.50
2018-12-29T07:56:16.846Z,37.63
2018-12-29T07:58:46.178Z,33.53
2018-12-29T08:01:15.452Z,36.70
2018-12-29T08:03:44.858Z,40.20
2018-12-29T08:06:14.214Z,35.27
2018-12-29T08:08:43.481Z,37.23
2018-12-29T08:11:12.786Z,34.83
2018-12-29T08:13:42.080Z,39.53
2018-12-29T08:16:11.412Z,37.40
2018-12-29T08:18:40.700Z,35.80
2018-12-29T08:21:09.998Z,36.27
2018-12-29T08:23:39.241Z,36.67
2018-12-29T08:26:08.590Z,32.20
2018-12-29T08:28:37.846Z,32.60
2018-12-29T08:31:07.159Z,37.93
2018-12-29T08:33:36.464Z,32.43
2018-12-29T08:36:05.738Z,32.07
2018-12-29T08:38:35.010Z,32.47
2018-12-29T08:41:04.288Z,31.80
2018-12-29T08:43:33.552Z,32.33
2018-12-29T08:46:02.864Z,30.43
2018-12-29T08:48:32.192Z,32.43
2018-12-29T08:51:01.604Z,29.47
2018-12-29T08:53:30.898Z,29.73
2018-12-29T08:56:00.168Z,29.90
2018-12-29T08:58:29.440Z,31.80
2018-12-29T09:00:58.703Z,35.93
2018-12-29T09:03:28.023Z,34.37
2018-12-29T09:05:57.279Z,33.23
2018-12-29T09:08:26.529Z,32.93
2018-12-29T09:10:55.788Z,35.47
2018-12-29T09:13:25.104Z,34.47
2018-12-29T09:15:54.429Z,33.70
2018-12-29T09:18:23.673Z,36.13
2018-12-29T09:20:53.040Z,31.97
2018-12-29T09:23:22.394Z,31.73
2018-12-29T09:25:51.690Z,34.67
2018-12-29T09:28:20.943Z,31.43
2018-12-29T09:30:50.235Z,31.60
2018-12-29T09:33:19.493Z,33.57
2018-12-29T09:35:48.799Z,31.70
2018-12-29T09:38:18.083Z,34.90
2018-12-29T09:40:47.345Z,33.00
2018-12-29T09:43:16.712Z,36.37
2018-12-29T09:45:45.956Z,35.40
2018-12-29T09:48:15.285Z,37.03
2018-12-29T09:50:44.598Z,35.30
2018-12-29T09:53:13.887Z,36.20
2018-12-29T09:55:43.160Z,32.33
2018-12-29T09:58:12.641Z,34.10
2018-12-29T10:00:41.910Z,33.30
2018-12-29T10:03:11.173Z,36.57
2018-12-29T10:05:40.502Z,32.87
2018-12-29T10:08:09.806Z,39.67
2018-12-29T10:10:39.101Z,32.63
2018-12-29T10:13:08.362Z,32.40
2018-12-29T10:15:37.681Z,28.40
2018-12-29T10:18:07.019Z,32.73
2018-12-29T10:20:36.319Z,31.27
2018-12-29T10:23:05.594Z,31.30
2018-12-29T10:25:34.874Z,30.10
2018-12-29T10:28:04.131Z,29.97
2018-12-29T10:30:33.441Z,30.97
2018-12-29T10:33:02.681Z,34.10
2018-12-29T10:35:32.088Z,33.87
2018-12-29T10:38:01.410Z,29.60
2018-12-29T10:40:30.677Z,29.00
2018-12-29T10:42:59.943Z,32.77
2018-12-29T10:45:29.328Z,33.00
2018-12-29T10:47:58.663Z,33.63
2018-12-29T10:50:27.956Z,35.27
2018-12-29T10:52:57.166Z,35.53
2018-12-29T10:55:26.545Z,36.03
2018-12-29T10:57:55.807Z,35.60
2018-12-29T11:00:25.092Z,34.17
2018-12-29T11:02:54.460Z,38.03
2018-12-29T11:05:23.726Z,39.17
2018-12-29T11:07:53.033Z,40.37
2018-12-29T11:10:22.340Z,35.73
2018-12-29T11:12:51.728Z,36.87
2018-12-29T11:15:21.056Z,37.03
2018-12-29T11:17:50.324Z,40.60
2018-12-29T11:20:19.665Z,41.37
2018-12-29T11:22:49.054Z,35.47
2018-12-29T11:25:18.386Z,39.53
2018-12-29T11:27:47.642Z,39.23
2018-12-29T11:30:16.954Z,34.77
2018-12-29T11:32:46.375Z,40.77
2018-12-29T11:35:15.760Z,38.87
2018-12-29T11:37:45.043Z,35.23
2018-12-29T11:40:14.317Z,41.63
2018-12-29T11:42:43.603Z,37.67
2018-12-29T11:45:13.050Z,39.17
2018-12-29T11:47:49.592Z,32.97
2018-12-29T11:50:11.660Z,39.13
2018-12-29T11:52:41.036Z,39.43
2018-12-29T11:55:10.304Z,42.33
2018-12-29T11:57:39.761Z,39.87
2018-12-29T12:00:09.690Z,40.40
2018-12-29T12:02:39.008Z,40.17
2018-12-29T12:05:08.278Z,41.73
2018-12-29T12:07:37.622Z,40.17
2018-12-29T12:10:06.984Z,44.00
2018-12-29T12:12:36.561Z,42.17
2018-12-29T12:15:06.110Z,41.07
2018-12-29T12:17:35.370Z,40.10
2018-12-29T12:20:05.178Z,40.23
2018-12-29T12:22:34.448Z,40.07
2018-12-29T12:25:03.774Z,41.70
2018-12-29T12:27:33.156Z,39.73
2018-12-29T12:30:02.449Z,42.63
2018-12-29T12:32:31.896Z,43.10
2018-12-29T12:35:01.272Z,43.40
2018-12-29T12:37:30.562Z,45.23
2018-12-29T12:39:59.904Z,37.80
2018-12-29T12:42:29.190Z,37.27
2018-12-29T12:44:58.638Z,34.43
2018-12-29T12:47:27.974Z,40.40
2018-12-29T12:49:57.658Z,36.27
2018-12-29T12:52:26.993Z,35.97
2018-12-29T12:54:56.362Z,32.83
2018-12-29T12:57:25.706Z,39.33
2018-12-29T12:59:55.068Z,33.87
2018-12-29T13:02:24.475Z,34.13
2018-12-29T13:04:54.374Z,37.23
2018-12-29T13:07:23.672Z,36.67
2018-12-29T13:09:52.983Z,31.63
2018-12-29T13:12:22.306Z,36.73
2018-12-29T13:14:51.586Z,40.50
2018-12-29T13:17:20.910Z,37.60
2018-12-29T13:19:50.210Z,37.23
2018-12-29T13:22:19.479Z,36.63
2018-12-29T13:24:48.814Z,37.50
2018-12-29T13:27:18.204Z,35.73
2018-12-29T13:29:47.526Z,36.93
2018-12-29T13:32:16.833Z,34.50
2018-12-29T13:34:46.439Z,41.37
2018-12-29T13:37:15.725Z,41.23
2018-12-29T13:39:45.131Z,42.00
2018-12-29T13:42:14.409Z,44.70
2018-12-29T13:44:43.739Z,39.60
2018-12-29T13:47:13.050Z,39.03
2018-12-29T13:49:42.339Z,43.27
2018-12-29T13:52:11.629Z,41.27
2018-12-29T13:54:41.135Z,40.27
2018-12-29T13:57:13.411Z,36.60
2018-12-29T13:59:42.660Z,40.23
2018-12-29T14:02:12.022Z,37.73
2018-12-29T14:04:41.266Z,39.73
2018-12-29T14:07:13.892Z,40.70
2018-12-29T14:09:43.161Z,36.83
2018-12-29T14:12:12.505Z,35.00
2018-12-29T14:14:44.671Z,37.23
2018-12-29T14:17:11.192Z,37.87
2018-12-29T14:19:40.467Z,44.57
2018-12-29T14:22:09.755Z,47.97
2018-12-29T14:24:39.018Z,47.77
2018-12-29T14:27:08.316Z,46.00
2018-12-29T14:29:37.680Z,44.60
2018-12-29T14:32:06.969Z,48.43
2018-12-29T14:34:36.273Z,44.73
2018-12-29T14:37:05.559Z,42.30
2018-12-29T14:39:35.024Z,46.87
2018-12-29T14:42:04.383Z,42.77
2018-12-29T14:44:33.703Z,39.67
2018-12-29T14:47:03.091Z,40.67
2018-12-29T14:49:32.522Z,36.53
2018-12-29T14:52:01.787Z,40.57
2018-12-29T14:54:31.391Z,36.80
2018-12-29T14:57:00.668Z,37.60
2018-12-29T14:59:29.952Z,35.97
2018-12-29T15:01:59.313Z,34.00
2018-12-29T15:04:28.601Z,32.20
2018-12-29T15:06:57.893Z,34.10
2018-12-29T15:09:27.335Z,31.97
2018-12-29T15:11:56.532Z,38.10
2018-12-29T15:14:25.802Z,33.37
2018-12-29T15:16:55.161Z,31.33
2018-12-29T15:19:24.508Z,31.17
2018-12-29T15:21:53.770Z,31.53
2018-12-29T15:24:23.103Z,29.30
2018-12-29T15:26:52.444Z,29.50
2018-12-29T15:29:21.856Z,29.07
2018-12-29T15:31:51.171Z,29.33
2018-12-29T15:34:20.520Z,28.97
2018-12-29T15:36:49.888Z,28.30
2018-12-29T15:39:19.171Z,30.83
2018-12-29T15:41:48.586Z,28.97
2018-12-29T15:44:17.937Z,33.37
2018-12-29T15:46:47.283Z,32.00
2018-12-29T15:49:16.622Z,31.40
2018-12-29T15:51:45.978Z,35.50
2018-12-29T15:54:15.251Z,33.83
2018-12-29T15:56:44.551Z,35.63
2018-12-29T15:59:13.898Z,35.80
2018-12-29T16:01:43.185Z,34.43
2018-12-29T16:04:12.452Z,36.53
2018-12-29T16:06:41.844Z,37.13
2018-12-29T16:09:11.170Z,39.10
2018-12-29T16:11:40.559Z,38.20
2018-12-29T16:14:09.869Z,37.33
2018-12-29T16:16:39.106Z,36.60
2018-12-29T16:19:08.476Z,40.03
2018-12-29T16:21:37.761Z,37.50
2018-12-29T16:24:07.077Z,34.47
2018-12-29T16:26:36.484Z,39.33
2018-12-29T16:29:05.839Z,37.90
2018-12-29T16:31:35.155Z,37.83
2018-12-29T16:34:04.478Z,37.50
2018-12-29T16:36:33.899Z,42.83
2018-12-29T16:39:03.176Z,42.93
2018-12-29T16:41:32.498Z,38.80
2018-12-29T16:44:01.778Z,43.90
2018-12-29T16:46:31.065Z,39.70
2018-12-29T16:49:06.783Z,46.53
2018-12-29T16:51:29.771Z,45.17
2018-12-29T16:53:59.068Z,34.67
2018-12-29T16:56:28.373Z,36.93
2018-12-29T16:58:57.664Z,32.73
2018-12-29T17:01:27.098Z,37.53
2018-12-29T17:03:56.393Z,42.57
2018-12-29T17:06:25.803Z,36.57
2018-12-29T17:08:55.126Z,35.00
2018-12-29T17:11:24.439Z,36.63
2018-12-29T17:13:53.772Z,33.13
2018-12-29T17:16:23.106Z,34.97
2018-12-29T17:18:52.401Z,32.33
2018-12-29T17:21:21.674Z,27.23
2018-12-29T17:23:50.964Z,25.17
2018-12-29T17:26:20.200Z,21.80
2018-12-29T17:28:49.538Z,18.63
2018-12-29T17:31:18.900Z,16.93
2018-12-29T17:33:48.184Z,15.77
2018-12-29T17:36:17.520Z,15.40
2018-12-29T17:38:46.824Z,14.97
2018-12-29T17:41:16.096Z,14.97
2018-12-29T17:43:45.517Z,13.40
2018-12-29T17:46:14.805Z,14.07
2018-12-29T17:48:44.066Z,12.63
2018-12-29T17:51:13.368Z,13.83
2018-12-29T17:53:47.987Z,15.20
2018-12-29T17:56:11.894Z,15.10
2018-12-29T17:58:41.160Z,18.17
2018-12-29T18:01:10.424Z,16.43
2018-12-29T18:03:39.713Z,16.90
2018-12-29T18:06:10.834Z,18.47
2018-12-29T18:08:38.664Z,19.57
2018-12-29T18:11:07.940Z,19.77
2018-12-29T18:13:37.335Z,22.33
2018-12-29T18:16:06.656Z,20.50
2018-12-29T18:18:35.934Z,21.23
2018-12-29T18:21:05.194Z,23.10
2018-12-29T18:23:34.514Z,25.67
2018-12-29T18:26:03.776Z,22.77
2018-12-29T18:28:33.066Z,22.83
2018-12-29T18:31:02.353Z,24.43
2018-12-29T18:33:37.181Z,26.40
2018-12-29T18:36:00.971Z,22.43
2018-12-29T18:38:30.305Z,28.90
2018-12-29T18:40:59.575Z,28.63
2018-12-29T18:43:28.845Z,29.37
2018-12-29T18:45:58.250Z,27.57
2018-12-29T18:48:27.569Z,27.57
2018-12-29T18:50:56.892Z,27.40
2018-12-29T18:53:26.200Z,27.67
2018-12-29T18:55:55.501Z,28.33
2018-12-29T18:58:24.774Z,27.63
2018-12-29T19:00:54.044Z,26.33
2018-12-29T19:03:23.289Z,30.63
2018-12-29T19:05:52.597Z,27.87
2018-12-29T19:08:21.882Z,28.20
2018-12-29T19:10:51.176Z,28.07
2018-12-29T19:13:20.545Z,31.40
2018-12-29T19:15:49.905Z,30.60
2018-12-29T19:18:19.224Z,34.87
2018-12-29T19:20:48.573Z,33.10
2018-12-29T19:23:17.875Z,31.00
2018-12-29T19:25:47.203Z,31.27
2018-12-29T19:28:16.492Z,35.73
2018-12-29T19:30:45.749Z,31.63
2018-12-29T19:33:15.094Z,36.50
2018-12-29T19:35:44.396Z,35.53
2018-12-29T19:38:13.688Z,36.40
2018-12-29T19:40:42.993Z,35.00
2018-12-29T19:43:12.331Z,40.23
2018-12-29T19:45:41.656Z,37.90
2018-12-29T19:48:10.970Z,36.80
2018-12-29T19:50:40.254Z,36.27
2018-12-29T19:53:09.535Z,40.03
2018-12-29T19:55:38.834Z,40.10
2018-12-29T19:58:08.130Z,36.57
2018-12-29T20:00:37.424Z,40.17
2018-12-29T20:03:06.686Z,33.87
2018-12-29T20:05:36.043Z,36.30
2018-12-29T20:08:05.335Z,31.83
2018-12-29T20:10:34.685Z,30.77
2018-12-29T20:13:03.979Z,32.13
2018-12-29T20:15:33.405Z,33.00
2018-12-29T20:18:02.687Z,34.47
2018-12-29T20:20:31.969Z,30.37
2018-12-29T20:23:01.239Z,31.83
2018-12-29T20:25:31.062Z,26.50
2018-12-29T20:28:00.500Z,29.23
2018-12-29T20:30:29.726Z,28.47
2018-12-29T20:32:59.304Z,30.93
2018-12-29T20:35:28.505Z,27.67
2018-12-29T20:37:57.868Z,26.93
2018-12-29T20:40:27.204Z,32.07
2018-12-29T20:42:56.557Z,31.20
2018-12-29T20:45:25.874Z,23.90
2018-12-29T20:47:55.192Z,21.57
2018-12-29T20:50:24.473Z,17.33
2018-12-29T20:52:53.811Z,18.17
2018-12-29T20:55:23.115Z,19.97
2018-12-29T20:57:52.444Z,17.10
2018-12-29T21:00:21.738Z,16.67
2018-12-29T21:02:51.354Z,13.70
2018-12-29T21:05:20.631Z,11.23
2018-12-29T21:07:49.972Z,11.93
2018-12-29T21:10:19.254Z,11.50
2018-12-29T21:12:48.679Z,8.23
2018-12-29T21:15:17.926Z,6.77
2018-12-29T21:17:47.356Z,12.73
2018-12-29T21:20:17.542Z,8.83
2018-12-29T21:22:46.255Z,8.43
2018-12-29T21:25:15.602Z,6.17
2018-12-29T21:27:44.898Z,5.70
2018-12-29T21:30:14.183Z,10.23
2018-12-29T21:32:43.493Z,11.33
2018-12-29T21:35:12.830Z,6.40
2018-12-29T21:37:42.108Z,8.83
2018-12-29T21:40:11.400Z,13.80
2018-12-29T21:42:40.696Z,9.50
2018-12-29T21:45:10.047Z,8.47
2018-12-29T21:47:39.414Z,10.50
2018-12-29T21:50:10.460Z,6.73
2018-12-29T21:52:38.008Z,9.97
2018-12-29T21:55:07.332Z,4.67
2018-12-29T21:57:36.620Z,7.17
2018-12-29T22:00:06.407Z,7.67
2018-12-29T22:02:35.667Z,9.40
2018-12-29T22:05:05.009Z,6.73
2018-12-29T22:07:34.281Z,9.13
2018-12-29T22:10:04.035Z,9.60
2018-12-29T22:12:33.336Z,5.40
2018-12-29T22:15:02.687Z,7.50
2018-12-29T22:17:31.991Z,8.10
2018-12-29T22:20:01.273Z,7.07
2018-12-29T22:22:30.499Z,9.03
2018-12-29T22:24:59.796Z,6.40
2018-12-29T22:27:29.202Z,4.13
2018-12-29T22:29:58.478Z,6.10
2018-12-29T22:32:27.805Z,5.60
2018-12-29T22:34:57.076Z,5.43
2018-12-29T22:37:26.406Z,5.33
2018-12-29T22:39:55.733Z,5.53
2018-12-29T22:42:24.965Z,8.57
2018-12-29T22:44:54.239Z,6.33
2018-12-29T22:47:23.601Z,8.13
2018-12-29T22:49:52.869Z,5.50
2018-12-29T22:52:22.222Z,7.20
2018-12-29T22:54:51.508Z,8.17
2018-12-29T22:57:20.853Z,6.73
2018-12-29T22:59:50.211Z,6.90
2018-12-29T23:02:20.029Z,9.30
2018-12-29T23:04:49.320Z,7.83
2018-12-29T23:07:18.650Z,8.43
2018-12-29T23:09:47.929Z,8.17
2018-12-29T23:12:17.253Z,6.77
2018-12-29T23:14:46.523Z,8.27
2018-12-29T23:17:16.243Z,8.10
2018-12-29T23:19:45.957Z,7.73
2018-12-29T23:22:14.863Z,5.93
2018-12-29T23:24:44.122Z,7.67
2018-12-29T23:27:13.449Z,10.53
2018-12-29T23:29:42.769Z,6.13
2018-12-29T23:32:12.038Z,4.33
2018-12-29T23:34:41.371Z,3.50
2018-12-29T23:37:10.655Z,5.33
2018-12-29T23:39:40.011Z,6.93
2018-12-29T23:42:09.239Z,3.37
2018-12-29T23:44:38.531Z,4.60
2018-12-29T23:47:07.852Z,6.63
2018-12-29T23:49:37.307Z,10.03
2018-12-29T23:52:06.576Z,5.63
2018-12-29T23:54:35.839Z,6.23
2018-12-29T23:57:05.173Z,4.70
2018-12-29T23:59:34.454Z,8.50
